Ridgebury Sally B — V7JQ9 — position and weather

sailwx.info

Track history (hours):
 
Tides and Currents Weather Stations Pressure Air Temp Water Temp Dewpoint Dewpoint Depression Visibility Wind Speed Wind Dir Waves Ship Positions

Ridgebury Sally B

Last reported at 2018-Jan-08 07:33 UTC. Time now 2018-Jan-21 16:18 UTC.
Position N 25°56' W 079°26'.
Warning: this ship's position is 13 days out of date.

Length 239 m; draft 10.9 m.

Type: Ship. MMSI: 538006092.

Date/timePositionNaut miles runAvg speedWind from/ knotsBaromVisibWave heightAir tempDewpointWater temp
2018-Jan-08 07:33N 25°56' W 079°26'113.4
2018-Jan-08 07:29N 25°55' W 079°26'1113.3
2018-Jan-08 06:40N 25°44' W 079°28'213.2
2018-Jan-08 06:31N 25°42' W 079°29'713.2
2018-Jan-08 06:01N 25°36' W 079°30'713.2
2018-Jan-08 05:31N 25°29' W 079°31'  
2017-Dec-30 19:26N 29°30' W 094°53'410.6
2017-Dec-30 19:00N 29°34' W 094°55'510.3
2017-Dec-30 18:30N 29°39' W 094°58'5 9.2
2017-Dec-30 18:00N 29°42' W 095°01'4 8.1
2017-Dec-30 17:30N 29°46' W 095°04'2 3.5
2017-Dec-30 17:00N 29°45' W 095°06'0 0.3
2017-Dec-30 16:28N 29°45' W 095°06'0 0.0
2017-Dec-29 07:49N 29°45' W 095°06'  
Track history (hours):
 
Tides and Currents Weather Stations Pressure Air Temp Water Temp Dewpoint Dewpoint Depression Visibility Wind Speed Wind Dir Waves Ship Positions

Ridgebury Sally B

Last reported at 2018-Jan-08 07:33 UTC. Time now 2018-Jan-21 16:18 UTC.
Position N 25°56' W 079°26'.
Warning: this ship's position is 13 days out of date.

Length 239 m; draft 10.9 m.

Type: Ship. MMSI: 538006092.

Date/timePositionNaut miles runAvg speedWind from/ knotsBaromVisibWave heightAir tempDewpointWater temp
2018-Jan-08 07:33N 25°56' W 079°26'113.4
2018-Jan-08 07:29N 25°55' W 079°26'1113.3
2018-Jan-08 06:40N 25°44' W 079°28'213.2
2018-Jan-08 06:31N 25°42' W 079°29'713.2
2018-Jan-08 06:01N 25°36' W 079°30'713.2
2018-Jan-08 05:31N 25°29' W 079°31'  
2017-Dec-30 19:26N 29°30' W 094°53'410.6
2017-Dec-30 19:00N 29°34' W 094°55'510.3
2017-Dec-30 18:30N 29°39' W 094°58'5 9.2
2017-Dec-30 18:00N 29°42' W 095°01'4 8.1
2017-Dec-30 17:30N 29°46' W 095°04'2 3.5
2017-Dec-30 17:00N 29°45' W 095°06'0 0.3
2017-Dec-30 16:28N 29°45' W 095°06'0 0.0
2017-Dec-29 07:49N 29°45' W 095°06'  

Dump ship's entire track history